sensor_id;sensor_type;location;lat;lon;timestamp;pressure;altitude;pressure_sealevel;temperature
70389;BMP280;58659;49.050;8.530;2023-05-07T00:01:25;99719.50;;;13.35
70389;BMP280;58659;49.050;8.530;2023-05-07T00:03:50;99718.75;;;13.38
70389;BMP280;58659;49.050;8.530;2023-05-07T00:06:16;99720.25;;;13.42
70389;BMP280;58659;49.050;8.530;2023-05-07T00:08:42;99726.66;;;13.41
70389;BMP280;58659;49.050;8.530;2023-05-07T00:11:07;99715.38;;;13.37
70389;BMP280;58659;49.050;8.530;2023-05-07T00:13:33;99710.13;;;13.34
70389;BMP280;58659;49.050;8.530;2023-05-07T00:16:04;99701.47;;;13.33
70389;BMP280;58659;49.050;8.530;2023-05-07T00:18:29;99687.22;;;13.27
70389;BMP280;58659;49.050;8.530;2023-05-07T00:20:55;99680.09;;;13.24
70389;BMP280;58659;49.050;8.530;2023-05-07T00:23:21;99674.44;;;13.15
70389;BMP280;58659;49.050;8.530;2023-05-07T00:25:46;99660.13;;;12.98
70389;BMP280;58659;49.050;8.530;2023-05-07T00:28:12;99645.91;;;12.96
70389;BMP280;58659;49.050;8.530;2023-05-07T00:30:37;99649.66;;;12.95
70389;BMP280;58659;49.050;8.530;2023-05-07T00:33:02;99659.38;;;12.98
70389;BMP280;58659;49.050;8.530;2023-05-07T00:35:28;99665.78;;;13.04
70389;BMP280;58659;49.050;8.530;2023-05-07T00:37:54;99674.06;;;13.09
70389;BMP280;58659;49.050;8.530;2023-05-07T00:40:20;99669.19;;;13.15
70389;BMP280;58659;49.050;8.530;2023-05-07T00:42:45;99675.19;;;13.23
70389;BMP280;58659;49.050;8.530;2023-05-07T00:45:15;99684.97;;;13.26
70389;BMP280;58659;49.050;8.530;2023-05-07T00:47:43;99680.88;;;13.28
70389;BMP280;58659;49.050;8.530;2023-05-07T00:50:08;99684.25;;;13.32
70389;BMP280;58659;49.050;8.530;2023-05-07T00:52:36;99690.28;;;13.43
70389;BMP280;58659;49.050;8.530;2023-05-07T00:55:05;99694.03;;;13.49
70389;BMP280;58659;49.050;8.530;2023-05-07T00:57:37;99693.28;;;13.52
70389;BMP280;58659;49.050;8.530;2023-05-07T01:00:07;99684.31;;;13.53
70389;BMP280;58659;49.050;8.530;2023-05-07T01:02:34;99680.56;;;13.58
70389;BMP280;58659;49.050;8.530;2023-05-07T01:05:00;99685.06;;;13.61
70389;BMP280;58659;49.050;8.530;2023-05-07T01:07:26;99694.78;;;13.57
70389;BMP280;58659;49.050;8.530;2023-05-07T01:09:52;99690.69;;;13.56
70389;BMP280;58659;49.050;8.530;2023-05-07T01:12:17;99686.53;;;13.51
70389;BMP280;58659;49.050;8.530;2023-05-07T01:14:43;99691.41;;;13.49
70389;BMP280;58659;49.050;8.530;2023-05-07T01:17:08;99673.38;;;13.30
70389;BMP280;58659;49.050;8.530;2023-05-07T01:19:34;99673.34;;;13.23
70389;BMP280;58659;49.050;8.530;2023-05-07T01:22:07;99669.53;;;13.10
70389;BMP280;58659;49.050;8.530;2023-05-07T01:24:33;99662.38;;;12.96
70389;BMP280;58659;49.050;8.530;2023-05-07T01:26:58;99651.88;;;12.93
70389;BMP280;58659;49.050;8.530;2023-05-07T01:29:24;99650.75;;;12.90
70389;BMP280;58659;49.050;8.530;2023-05-07T01:31:50;99643.63;;;12.87
70389;BMP280;58659;49.050;8.530;2023-05-07T01:34:17;99636.81;;;12.79
70389;BMP280;58659;49.050;8.530;2023-05-07T01:36:43;99637.56;;;12.73
70389;BMP280;58659;49.050;8.530;2023-05-07T01:39:10;99617.69;;;12.68
70389;BMP280;58659;49.050;8.530;2023-05-07T01:41:35;99609.81;;;12.61
70389;BMP280;58659;49.050;8.530;2023-05-07T01:44:01;99604.53;;;12.57
70389;BMP280;58659;49.050;8.530;2023-05-07T01:46:26;99607.53;;;12.56
70389;BMP280;58659;49.050;8.530;2023-05-07T01:48:52;99606.03;;;12.58
70389;BMP280;58659;49.050;8.530;2023-05-07T01:51:18;99602.69;;;12.62
70389;BMP280;58659;49.050;8.530;2023-05-07T01:53:45;99602.28;;;12.63
70389;BMP280;58659;49.050;8.530;2023-05-07T01:56:12;99612.06;;;12.63
70389;BMP280;58659;49.050;8.530;2023-05-07T01:58:38;99597.41;;;12.58
70389;BMP280;58659;49.050;8.530;2023-05-07T02:01:03;99599.63;;;12.52
70389;BMP280;58659;49.050;8.530;2023-05-07T02:03:28;99598.88;;;12.48
70389;BMP280;58659;49.050;8.530;2023-05-07T02:05:54;99590.22;;;12.44
70389;BMP280;58659;49.050;8.530;2023-05-07T02:08:19;99595.09;;;12.49
70389;BMP280;58659;49.050;8.530;2023-05-07T02:10:45;99587.25;;;12.49
70389;BMP280;58659;49.050;8.530;2023-05-07T02:13:10;99589.16;;;12.52
70389;BMP280;58659;49.050;8.530;2023-05-07T02:15:36;99591.78;;;12.52
70389;BMP280;58659;49.050;8.530;2023-05-07T02:18:04;99582.41;;;12.51
70389;BMP280;58659;49.050;8.530;2023-05-07T02:20:29;99586.53;;;12.52
70389;BMP280;58659;49.050;8.530;2023-05-07T02:22:55;99595.56;;;12.58
70389;BMP280;58659;49.050;8.530;2023-05-07T02:25:20;99615.41;;;12.63
70389;BMP280;58659;49.050;8.530;2023-05-07T02:27:45;99615.06;;;12.68
70389;BMP280;58659;49.050;8.530;2023-05-07T02:30:11;99628.59;;;12.77
70389;BMP280;58659;49.050;8.530;2023-05-07T02:32:36;99630.16;;;12.89
70389;BMP280;58659;49.050;8.530;2023-05-07T02:35:02;99641.41;;;13.00
70389;BMP280;58659;49.050;8.530;2023-05-07T02:37:27;99644.84;;;13.07
70389;BMP280;58659;49.050;8.530;2023-05-07T02:39:53;99663.59;;;13.24
70389;BMP280;58659;49.050;8.530;2023-05-07T02:42:18;99672.63;;;13.33
70389;BMP280;58659;49.050;8.530;2023-05-07T02:44:43;99665.16;;;13.42
70389;BMP280;58659;49.050;8.530;2023-05-07T02:47:08;99682.03;;;13.48
70389;BMP280;58659;49.050;8.530;2023-05-07T02:49:34;99675.66;;;13.49
70389;BMP280;58659;49.050;8.530;2023-05-07T02:52:00;99670.44;;;13.49
70389;BMP280;58659;49.050;8.530;2023-05-07T02:54:25;99674.53;;;13.43
70389;BMP280;58659;49.050;8.530;2023-05-07T02:56:50;99667.75;;;13.35
70389;BMP280;58659;49.050;8.530;2023-05-07T02:59:16;99643.00;;;13.22
70389;BMP280;58659;49.050;8.530;2023-05-07T03:01:41;99631.72;;;13.18
70389;BMP280;58659;49.050;8.530;2023-05-07T03:04:09;99636.94;;;13.11
70389;BMP280;58659;49.050;8.530;2023-05-07T03:06:35;99631.69;;;13.04
70389;BMP280;58659;49.050;8.530;2023-05-07T03:09:01;99625.69;;;13.00
70389;BMP280;58659;49.050;8.530;2023-05-07T03:11:26;99616.69;;;12.94
70389;BMP280;58659;49.050;8.530;2023-05-07T03:13:52;99620.44;;;13.00
70389;BMP280;58659;49.050;8.530;2023-05-07T03:16:17;99625.69;;;13.00
70389;BMP280;58659;49.050;8.530;2023-05-07T03:18:42;99618.56;;;13.04
70389;BMP280;58659;49.050;8.530;2023-05-07T03:21:07;99623.47;;;13.09
70389;BMP280;58659;49.050;8.530;2023-05-07T03:23:33;99621.22;;;13.11
70389;BMP280;58659;49.050;8.530;2023-05-07T03:25:58;99623.47;;;13.09
70389;BMP280;58659;49.050;8.530;2023-05-07T03:28:23;99622.75;;;13.08
70389;BMP280;58659;49.050;8.530;2023-05-07T03:30:49;99622.34;;;13.06
70389;BMP280;58659;49.050;8.530;2023-05-07T03:33:14;99624.22;;;13.02
70389;BMP280;58659;49.050;8.530;2023-05-07T03:35:40;99612.19;;;12.98
70389;BMP280;58659;49.050;8.530;2023-05-07T03:38:05;99617.75;;;12.86
70389;BMP280;58659;49.050;8.530;2023-05-07T03:40:30;99597.47;;;12.69
70389;BMP280;58659;49.050;8.530;2023-05-07T03:42:55;99585.38;;;12.46
70389;BMP280;58659;49.050;8.530;2023-05-07T03:45:21;99567.69;;;12.29
70389;BMP280;58659;49.050;8.530;2023-05-07T03:47:46;99563.50;;;12.14
70389;BMP280;58659;49.050;8.530;2023-05-07T03:50:11;99554.09;;;12.06
70389;BMP280;58659;49.050;8.530;2023-05-07T03:52:37;99554.81;;;11.99
70389;BMP280;58659;49.050;8.530;2023-05-07T03:55:02;99549.53;;;11.96
70389;BMP280;58659;49.050;8.530;2023-05-07T03:57:27;99550.59;;;11.88
70389;BMP280;58659;49.050;8.530;2023-05-07T03:59:52;99542.31;;;11.79
70389;BMP280;58659;49.050;8.530;2023-05-07T04:02:18;99530.31;;;11.71
70389;BMP280;58659;49.050;8.530;2023-05-07T04:04:43;99498.47;;;11.65
70389;BMP280;58659;49.050;8.530;2023-05-07T04:07:08;99501.53;;;11.71
70389;BMP280;58659;49.050;8.530;2023-05-07T04:09:35;99487.34;;;11.79
70389;BMP280;58659;49.050;8.530;2023-05-07T04:12:00;99494.13;;;11.87
70389;BMP280;58659;49.050;8.530;2023-05-07T04:14:26;99503.84;;;11.83
70389;BMP280;58659;49.050;8.530;2023-05-07T04:16:51;99504.25;;;11.88
70389;BMP280;58659;49.050;8.530;2023-05-07T04:19:16;99511.38;;;11.91
70389;BMP280;58659;49.050;8.530;2023-05-07T04:21:44;99508.72;;;11.88
70389;BMP280;58659;49.050;8.530;2023-05-07T04:24:10;99512.50;;;11.94
70389;BMP280;58659;49.050;8.530;2023-05-07T04:26:35;99525.25;;;11.99
70389;BMP280;58659;49.050;8.530;2023-05-07T04:29:00;99519.66;;;12.00
70389;BMP280;58659;49.050;8.530;2023-05-07T04:31:26;99518.91;;;12.00
70389;BMP280;58659;49.050;8.530;2023-05-07T04:33:54;99526.38;;;11.98
70389;BMP280;58659;49.050;8.530;2023-05-07T04:36:20;99516.66;;;12.02
70389;BMP280;58659;49.050;8.530;2023-05-07T04:38:46;99507.75;;;12.07
70389;BMP280;58659;49.050;8.530;2023-05-07T04:41:13;99513.06;;;12.24
70389;BMP280;58659;49.050;8.530;2023-05-07T04:43:39;99549.84;;;12.52
70389;BMP280;58659;49.050;8.530;2023-05-07T04:46:05;99579.94;;;12.83
70389;BMP280;58659;49.050;8.530;2023-05-07T04:48:30;99609.19;;;12.99
70389;BMP280;58659;49.050;8.530;2023-05-07T04:50:55;99628.72;;;13.16
70389;BMP280;58659;49.050;8.530;2023-05-07T04:53:21;99643.00;;;13.26
70389;BMP280;58659;49.050;8.530;2023-05-07T04:55:46;99654.25;;;13.33
70389;BMP280;58659;49.050;8.530;2023-05-07T04:58:12;99654.28;;;13.40
70389;BMP280;58659;49.050;8.530;2023-05-07T05:00:38;99656.53;;;13.45
70389;BMP280;58659;49.050;8.530;2023-05-07T05:03:04;99658.78;;;13.50
70389;BMP280;58659;49.050;8.530;2023-05-07T05:05:30;99668.91;;;13.48
70389;BMP280;58659;49.050;8.530;2023-05-07T05:07:55;99664.78;;;13.51
70389;BMP280;58659;49.050;8.530;2023-05-07T05:10:21;99675.69;;;13.53
70389;BMP280;58659;49.050;8.530;2023-05-07T05:12:46;99673.81;;;13.53
70389;BMP280;58659;49.050;8.530;2023-05-07T05:15:12;99682.44;;;13.54
70389;BMP280;58659;49.050;8.530;2023-05-07T05:17:38;99677.19;;;13.57
70389;BMP280;58659;49.050;8.530;2023-05-07T05:20:04;99685.81;;;13.65
70389;BMP280;58659;49.050;8.530;2023-05-07T05:22:30;99697.06;;;13.69
70389;BMP280;58659;49.050;8.530;2023-05-07T05:24:56;99691.47;;;13.78
70389;BMP280;58659;49.050;8.530;2023-05-07T05:27:22;99697.09;;;13.80
70389;BMP280;58659;49.050;8.530;2023-05-07T05:29:47;99686.59;;;13.80
70389;BMP280;58659;49.050;8.530;2023-05-07T05:32:12;99690.00;;;13.91
70389;BMP280;58659;49.050;8.530;2023-05-07T05:34:38;99683.97;;;13.94
70389;BMP280;58659;49.050;8.530;2023-05-07T05:37:03;99692.22;;;14.06
70389;BMP280;58659;49.050;8.530;2023-05-07T05:39:28;99698.25;;;14.14
70389;BMP280;58659;49.050;8.530;2023-05-07T05:41:54;99697.44;;;14.35
70389;BMP280;58659;49.050;8.530;2023-05-07T05:44:19;99698.56;;;14.48
70389;BMP280;58659;49.050;8.530;2023-05-07T05:46:45;99703.78;;;14.72
70389;BMP280;58659;49.050;8.530;2023-05-07T05:49:10;99716.81;;;15.01
70389;BMP280;58659;49.050;8.530;2023-05-07T05:51:35;99726.88;;;15.23
70389;BMP280;58659;49.050;8.530;2023-05-07T05:54:00;99751.56;;;15.47
70389;BMP280;58659;49.050;8.530;2023-05-07T05:56:26;99750.72;;;15.64
70389;BMP280;58659;49.050;8.530;2023-05-07T05:58:53;99762.28;;;15.77
70389;BMP280;58659;49.050;8.530;2023-05-07T06:01:18;99776.53;;;15.90
70389;BMP280;58659;49.050;8.530;2023-05-07T06:03:44;99772.38;;;15.93
70389;BMP280;58659;49.050;8.530;2023-05-07T06:06:09;99786.34;;;15.86
70389;BMP280;58659;49.050;8.530;2023-05-07T06:08:35;99770.13;;;15.91
70389;BMP280;58659;49.050;8.530;2023-05-07T06:11:01;99777.97;;;16.02
70389;BMP280;58659;49.050;8.530;2023-05-07T06:13:27;99768.50;;;16.08
70389;BMP280;58659;49.050;8.530;2023-05-07T06:15:53;99772.63;;;16.06
70389;BMP280;58659;49.050;8.530;2023-05-07T06:18:18;99769.19;;;16.16
70389;BMP280;58659;49.050;8.530;2023-05-07T06:20:43;99768.00;;;16.20
70389;BMP280;58659;49.050;8.530;2023-05-07T06:23:09;99772.00;;;16.39
70389;BMP280;58659;49.050;8.530;2023-05-07T06:25:34;99770.03;;;16.50
70389;BMP280;58659;49.050;8.530;2023-05-07T06:27:59;99782.69;;;16.62
70389;BMP280;58659;49.050;8.530;2023-05-07T06:30:25;99792.66;;;16.85
70389;BMP280;58659;49.050;8.530;2023-05-07T06:32:51;99802.22;;;17.05
70389;BMP280;58659;49.050;8.530;2023-05-07T06:35:17;99819.34;;;17.24
70389;BMP280;58659;49.050;8.530;2023-05-07T06:37:42;99809.28;;;17.46
70389;BMP280;58659;49.050;8.530;2023-05-07T06:40:08;99811.66;;;17.63
70389;BMP280;58659;49.050;8.530;2023-05-07T06:42:35;99814.88;;;18.01
70389;BMP280;58659;49.050;8.530;2023-05-07T06:45:00;99815.03;;;18.14
70389;BMP280;58659;49.050;8.530;2023-05-07T06:47:26;99821.75;;;18.42
70389;BMP280;58659;49.050;8.530;2023-05-07T06:49:51;99828.38;;;18.73
70389;BMP280;58659;49.050;8.530;2023-05-07T06:52:16;99834.50;;;19.09
70389;BMP280;58659;49.050;8.530;2023-05-07T06:54:41;99831.06;;;19.28
70389;BMP280;58659;49.050;8.530;2023-05-07T06:57:07;99827.53;;;19.51
70389;BMP280;58659;49.050;8.530;2023-05-07T07:02:50;99842.91;;;19.04
70389;BMP280;58659;49.050;8.530;2023-05-07T07:05:16;99833.00;;;18.69
70389;BMP280;58659;49.050;8.530;2023-05-07T07:07:41;99833.66;;;18.73
70389;BMP280;58659;49.050;8.530;2023-05-07T07:10:07;99841.59;;;18.92
70389;BMP280;58659;49.050;8.530;2023-05-07T07:12:32;99842.94;;;19.56
70389;BMP280;58659;49.050;8.530;2023-05-07T07:14:57;99833.50;;;20.03
70389;BMP280;58659;49.050;8.530;2023-05-07T07:17:23;99831.00;;;20.57
70389;BMP280;58659;49.050;8.530;2023-05-07T07:19:48;99841.22;;;21.13
70389;BMP280;58659;49.050;8.530;2023-05-07T07:22:13;99838.50;;;21.88
70389;BMP280;58659;49.050;8.530;2023-05-07T07:24:39;99843.22;;;22.40
70389;BMP280;58659;49.050;8.530;2023-05-07T07:27:04;99860.31;;;22.52
70389;BMP280;58659;49.050;8.530;2023-05-07T07:29:30;99857.44;;;22.24
70389;BMP280;58659;49.050;8.530;2023-05-07T07:31:56;99872.75;;;22.55
70389;BMP280;58659;49.050;8.530;2023-05-07T07:34:21;99877.75;;;22.31
70389;BMP280;58659;49.050;8.530;2023-05-07T07:36:47;99883.88;;;22.06
70389;BMP280;58659;49.050;8.530;2023-05-07T07:39:12;99874.34;;;21.96
70389;BMP280;58659;49.050;8.530;2023-05-07T07:41:38;99869.75;;;21.97
70389;BMP280;58659;49.050;8.530;2023-05-07T07:44:03;99866.28;;;22.43
70389;BMP280;58659;49.050;8.530;2023-05-07T07:46:29;99866.41;;;22.83
70389;BMP280;58659;49.050;8.530;2023-05-07T07:48:54;99876.06;;;23.20
70389;BMP280;58659;49.050;8.530;2023-05-07T07:51:20;99885.97;;;23.50
70389;BMP280;58659;49.050;8.530;2023-05-07T07:53:45;99891.19;;;22.71
70389;BMP280;58659;49.050;8.530;2023-05-07T07:56:10;99896.97;;;22.91
70389;BMP280;58659;49.050;8.530;2023-05-07T07:58:36;99891.94;;;22.93
70389;BMP280;58659;49.050;8.530;2023-05-07T08:01:03;99892.34;;;23.62
70389;BMP280;58659;49.050;8.530;2023-05-07T08:03:28;99894.56;;;24.72
70389;BMP280;58659;49.050;8.530;2023-05-07T08:05:56;99896.53;;;25.37
70389;BMP280;58659;49.050;8.530;2023-05-07T08:08:21;99897.19;;;25.94
70389;BMP280;58659;49.050;8.530;2023-05-07T08:10:47;99899.81;;;26.32
70389;BMP280;58659;49.050;8.530;2023-05-07T08:13:14;99902.06;;;26.48
70389;BMP280;58659;49.050;8.530;2023-05-07T08:15:40;99897.09;;;26.91
70389;BMP280;58659;49.050;8.530;2023-05-07T08:18:05;99904.22;;;26.94
70389;BMP280;58659;49.050;8.530;2023-05-07T08:20:30;99901.28;;;26.77
70389;BMP280;58659;49.050;8.530;2023-05-07T08:22:56;99903.41;;;26.88
70389;BMP280;58659;49.050;8.530;2023-05-07T08:25:21;99902.50;;;26.61
70389;BMP280;58659;49.050;8.530;2023-05-07T08:27:46;99903.72;;;26.46
70389;BMP280;58659;49.050;8.530;2023-05-07T08:30:12;99910.34;;;26.21
70389;BMP280;58659;49.050;8.530;2023-05-07T08:32:37;99914.34;;;26.40
70389;BMP280;58659;49.050;8.530;2023-05-07T08:35:02;99912.19;;;25.53
70389;BMP280;58659;49.050;8.530;2023-05-07T08:37:28;99907.34;;;25.10
70389;BMP280;58659;49.050;8.530;2023-05-07T08:39:53;99904.03;;;24.82
70389;BMP280;58659;49.050;8.530;2023-05-07T08:42:18;99910.56;;;24.81
70389;BMP280;58659;49.050;8.530;2023-05-07T08:44:45;99916.19;;;24.83
70389;BMP280;58659;49.050;8.530;2023-05-07T08:47:13;99913.81;;;24.85
70389;BMP280;58659;49.050;8.530;2023-05-07T08:49:38;99902.56;;;25.23
70389;BMP280;58659;49.050;8.530;2023-05-07T08:52:04;99902.03;;;24.59
70389;BMP280;58659;49.050;8.530;2023-05-07T08:54:29;99904.38;;;24.57
70389;BMP280;58659;49.050;8.530;2023-05-07T08:56:55;99906.16;;;24.69
70389;BMP280;58659;49.050;8.530;2023-05-07T08:59:21;99903.88;;;25.51
70389;BMP280;58659;49.050;8.530;2023-05-07T09:01:47;99903.31;;;26.09
70389;BMP280;58659;49.050;8.530;2023-05-07T09:04:13;99899.25;;;26.57
70389;BMP280;58659;49.050;8.530;2023-05-07T09:06:38;99904.28;;;26.50
70389;BMP280;58659;49.050;8.530;2023-05-07T09:09:07;99904.53;;;26.37
70389;BMP280;58659;49.050;8.530;2023-05-07T09:11:33;99903.03;;;26.95
70389;BMP280;58659;49.050;8.530;2023-05-07T09:13:58;99899.81;;;26.61
70389;BMP280;58659;49.050;8.530;2023-05-07T09:16:29;99897.59;;;26.60
70389;BMP280;58659;49.050;8.530;2023-05-07T09:18:58;99902.53;;;27.11
70389;BMP280;58659;49.050;8.530;2023-05-07T09:21:23;99896.22;;;27.34
70389;BMP280;58659;49.050;8.530;2023-05-07T09:23:54;99893.41;;;27.23
70389;BMP280;58659;49.050;8.530;2023-05-07T09:26:23;99890.88;;;27.14
70389;BMP280;58659;49.050;8.530;2023-05-07T09:28:49;99890.13;;;26.78
70389;BMP280;58659;49.050;8.530;2023-05-07T09:31:15;99892.66;;;27.02
70389;BMP280;58659;49.050;8.530;2023-05-07T09:33:40;99892.66;;;27.83
70389;BMP280;58659;49.050;8.530;2023-05-07T09:36:08;99901.19;;;28.32
70389;BMP280;58659;49.050;8.530;2023-05-07T09:38:35;99891.69;;;27.60
70389;BMP280;58659;49.050;8.530;2023-05-07T09:41:05;99905.34;;;27.22
70389;BMP280;58659;49.050;8.530;2023-05-07T09:43:38;99898.13;;;26.93
70389;BMP280;58659;49.050;8.530;2023-05-07T09:46:11;99892.31;;;27.15
70389;BMP280;58659;49.050;8.530;2023-05-07T09:48:38;99894.06;;;27.58
70389;BMP280;58659;49.050;8.530;2023-05-07T09:53:40;99891.53;;;27.69
70389;BMP280;58659;49.050;8.530;2023-05-07T09:56:16;99891.41;;;27.58
70389;BMP280;58659;49.050;8.530;2023-05-07T09:58:43;99885.88;;;27.87
70389;BMP280;58659;49.050;8.530;2023-05-07T10:01:10;99883.97;;;28.19
70389;BMP280;58659;49.050;8.530;2023-05-07T10:03:43;99887.31;;;28.39
70389;BMP280;58659;49.050;8.530;2023-05-07T10:06:09;99882.13;;;27.79
70389;BMP280;58659;49.050;8.530;2023-05-07T10:08:36;99874.22;;;28.21
70389;BMP280;58659;49.050;8.530;2023-05-07T10:11:03;99880.22;;;29.15
70389;BMP280;58659;49.050;8.530;2023-05-07T10:13:29;99872.56;;;29.08
70389;BMP280;58659;49.050;8.530;2023-05-07T10:15:55;99866.88;;;29.65
70389;BMP280;58659;49.050;8.530;2023-05-07T10:18:21;99877.16;;;30.55
70389;BMP280;58659;49.050;8.530;2023-05-07T10:20:55;99867.81;;;30.73
70389;BMP280;58659;49.050;8.530;2023-05-07T10:23:23;99873.94;;;31.25
70389;BMP280;58659;49.050;8.530;2023-05-07T10:25:49;99868.28;;;31.34
70389;BMP280;58659;49.050;8.530;2023-05-07T10:28:16;99869.22;;;31.36
70389;BMP280;58659;49.050;8.530;2023-05-07T10:33:27;99876.44;;;30.55
70389;BMP280;58659;49.050;8.530;2023-05-07T10:36:00;99869.00;;;31.29
70389;BMP280;58659;49.050;8.530;2023-05-07T10:38:27;99866.72;;;31.44
70389;BMP280;58659;49.050;8.530;2023-05-07T10:40:54;99868.31;;;31.64
70389;BMP280;58659;49.050;8.530;2023-05-07T10:43:20;99861.13;;;32.01
70389;BMP280;58659;49.050;8.530;2023-05-07T10:51:26;99867.72;;;31.41
70389;BMP280;58659;49.050;8.530;2023-05-07T10:56:41;99853.94;;;31.04
70389;BMP280;58659;49.050;8.530;2023-05-07T11:02:05;99863.47;;;29.81
70389;BMP280;58659;49.050;8.530;2023-05-07T11:04:35;99861.47;;;30.42
70389;BMP280;58659;49.050;8.530;2023-05-07T11:15:08;99841.53;;;32.44
70389;BMP280;58659;49.050;8.530;2023-05-07T11:17:34;99846.25;;;32.62
70389;BMP280;58659;49.050;8.530;2023-05-07T11:20:16;99845.56;;;31.83
70389;BMP280;58659;49.050;8.530;2023-05-07T11:22:42;99841.22;;;30.99
70389;BMP280;58659;49.050;8.530;2023-05-07T11:25:07;99839.66;;;30.57
70389;BMP280;58659;49.050;8.530;2023-05-07T11:27:33;99844.50;;;31.27
70389;BMP280;58659;49.050;8.530;2023-05-07T11:29:59;99837.78;;;31.74
70389;BMP280;58659;49.050;8.530;2023-05-07T11:32:27;99836.63;;;31.64
70389;BMP280;58659;49.050;8.530;2023-05-07T11:34:54;99833.88;;;32.23
70389;BMP280;58659;49.050;8.530;2023-05-07T11:37:20;99840.97;;;32.51
70389;BMP280;58659;49.050;8.530;2023-05-07T11:39:46;99838.56;;;32.66
70389;BMP280;58659;49.050;8.530;2023-05-07T11:42:31;99836.13;;;31.95
70389;BMP280;58659;49.050;8.530;2023-05-07T11:44:57;99843.16;;;31.45
70389;BMP280;58659;49.050;8.530;2023-05-07T11:47:22;99831.97;;;30.83
70389;BMP280;58659;49.050;8.530;2023-05-07T11:49:48;99838.19;;;30.56
70389;BMP280;58659;49.050;8.530;2023-05-07T11:52:15;99836.53;;;30.14
70389;BMP280;58659;49.050;8.530;2023-05-07T11:54:41;99827.22;;;29.60
70389;BMP280;58659;49.050;8.530;2023-05-07T11:57:06;99836.72;;;29.33
70389;BMP280;58659;49.050;8.530;2023-05-07T11:59:39;99836.91;;;29.19
70389;BMP280;58659;49.050;8.530;2023-05-07T12:02:06;99841.22;;;29.00
70389;BMP280;58659;49.050;8.530;2023-05-07T12:04:31;99836.25;;;28.82
70389;BMP280;58659;49.050;8.530;2023-05-07T12:06:56;99841.31;;;29.22
70389;BMP280;58659;49.050;8.530;2023-05-07T12:09:22;99833.53;;;29.35
70389;BMP280;58659;49.050;8.530;2023-05-07T12:11:47;99832.25;;;29.14
70389;BMP280;58659;49.050;8.530;2023-05-07T12:14:13;99832.88;;;28.92
70389;BMP280;58659;49.050;8.530;2023-05-07T12:16:40;99830.00;;;28.53
70389;BMP280;58659;49.050;8.530;2023-05-07T12:19:06;99827.31;;;28.53
70389;BMP280;58659;49.050;8.530;2023-05-07T12:21:34;99819.72;;;28.57
70389;BMP280;58659;49.050;8.530;2023-05-07T12:23:59;99816.16;;;28.72
70389;BMP280;58659;49.050;8.530;2023-05-07T12:26:25;99820.78;;;28.66
70389;BMP280;58659;49.050;8.530;2023-05-07T12:28:51;99814.94;;;28.30
70389;BMP280;58659;49.050;8.530;2023-05-07T12:31:17;99828.22;;;28.08
70389;BMP280;58659;49.050;8.530;2023-05-07T12:33:42;99823.16;;;27.90
70389;BMP280;58659;49.050;8.530;2023-05-07T12:36:08;99818.25;;;28.14
70389;BMP280;58659;49.050;8.530;2023-05-07T12:38:39;99820.25;;;28.56
70389;BMP280;58659;49.050;8.530;2023-05-07T12:41:07;99813.97;;;28.76
70389;BMP280;58659;49.050;8.530;2023-05-07T12:43:33;99812.97;;;28.31
70389;BMP280;58659;49.050;8.530;2023-05-07T12:46:06;99806.72;;;28.45
70389;BMP280;58659;49.050;8.530;2023-05-07T12:48:31;99819.53;;;28.61
70389;BMP280;58659;49.050;8.530;2023-05-07T12:50:58;99817.50;;;28.98
70389;BMP280;58659;49.050;8.530;2023-05-07T12:53:25;99816.41;;;29.43
70389;BMP280;58659;49.050;8.530;2023-05-07T12:55:56;99819.31;;;29.23
70389;BMP280;58659;49.050;8.530;2023-05-07T12:58:43;99822.34;;;28.83
70389;BMP280;58659;49.050;8.530;2023-05-07T13:01:09;99822.28;;;28.72
70389;BMP280;58659;49.050;8.530;2023-05-07T13:03:37;99828.84;;;28.29
70389;BMP280;58659;49.050;8.530;2023-05-07T13:06:05;99806.41;;;28.32
70389;BMP280;58659;49.050;8.530;2023-05-07T13:08:33;99816.69;;;28.39
70389;BMP280;58659;49.050;8.530;2023-05-07T13:11:00;99819.47;;;28.50
70389;BMP280;58659;49.050;8.530;2023-05-07T13:13:33;99821.88;;;28.42
70389;BMP280;58659;49.050;8.530;2023-05-07T13:15:59;99822.41;;;28.15
70389;BMP280;58659;49.050;8.530;2023-05-07T13:18:32;99816.09;;;27.67
70389;BMP280;58659;49.050;8.530;2023-05-07T13:20:57;99823.41;;;27.41
70389;BMP280;58659;49.050;8.530;2023-05-07T13:23:23;99810.06;;;27.06
70389;BMP280;58659;49.050;8.530;2023-05-07T13:25:49;99825.50;;;26.76
70389;BMP280;58659;49.050;8.530;2023-05-07T13:28:15;99827.03;;;26.48
70389;BMP280;58659;49.050;8.530;2023-05-07T13:30:40;99827.06;;;26.34
70389;BMP280;58659;49.050;8.530;2023-05-07T13:33:06;99843.66;;;26.08
70389;BMP280;58659;49.050;8.530;2023-05-07T13:35:32;99861.41;;;26.06
70389;BMP280;58659;49.050;8.530;2023-05-07T13:37:57;99867.88;;;26.14
70389;BMP280;58659;49.050;8.530;2023-05-07T13:40:23;99856.25;;;25.41
70389;BMP280;58659;49.050;8.530;2023-05-07T13:42:48;99870.94;;;24.80
70389;BMP280;58659;49.050;8.530;2023-05-07T13:45:14;99876.38;;;23.98
70389;BMP280;58659;49.050;8.530;2023-05-07T13:47:41;99873.47;;;23.38
70389;BMP280;58659;49.050;8.530;2023-05-07T13:50:07;99888.97;;;22.91
70389;BMP280;58659;49.050;8.530;2023-05-07T13:52:33;99883.50;;;22.29
70389;BMP280;58659;49.050;8.530;2023-05-07T13:54:58;99896.47;;;21.18
70389;BMP280;58659;49.050;8.530;2023-05-07T13:57:24;99889.63;;;20.18
70389;BMP280;58659;49.050;8.530;2023-05-07T13:59:49;99888.41;;;19.54
70389;BMP280;58659;49.050;8.530;2023-05-07T14:02:14;99894.50;;;19.35
70389;BMP280;58659;49.050;8.530;2023-05-07T14:04:40;99886.75;;;19.44
70389;BMP280;58659;49.050;8.530;2023-05-07T14:07:08;99881.97;;;19.55
70389;BMP280;58659;49.050;8.530;2023-05-07T14:09:33;99885.53;;;19.49
70389;BMP280;58659;49.050;8.530;2023-05-07T14:11:59;99883.13;;;19.54
70389;BMP280;58659;49.050;8.530;2023-05-07T14:14:25;99898.72;;;19.69
70389;BMP280;58659;49.050;8.530;2023-05-07T14:16:57;99910.00;;;19.89
70389;BMP280;58659;49.050;8.530;2023-05-07T14:19:23;99905.53;;;20.02
70389;BMP280;58659;49.050;8.530;2023-05-07T14:21:49;99905.38;;;19.93
70389;BMP280;58659;49.050;8.530;2023-05-07T14:24:14;99907.13;;;19.83
70389;BMP280;58659;49.050;8.530;2023-05-07T14:26:40;99904.44;;;19.67
70389;BMP280;58659;49.050;8.530;2023-05-07T14:29:05;99903.19;;;19.55
70389;BMP280;58659;49.050;8.530;2023-05-07T14:31:30;99906.00;;;19.65